createdAt,value
2023-03-24T00:01:04.805Z,10.80
2023-03-24T00:04:01.681Z,10.80
2023-03-24T00:06:58.753Z,10.80
2023-03-24T00:09:55.860Z,10.80
2023-03-24T00:12:52.734Z,10.70
2023-03-24T00:15:49.608Z,10.80
2023-03-24T00:18:50.324Z,10.60
2023-03-24T00:21:47.178Z,10.60
2023-03-24T00:24:46.819Z,10.60
2023-03-24T00:27:44.925Z,10.70
2023-03-24T00:30:42.162Z,10.70
2023-03-24T00:33:40.422Z,10.70
2023-03-24T00:36:37.670Z,10.70
2023-03-24T00:39:34.668Z,10.70
2023-03-24T00:42:35.464Z,10.70
2023-03-24T00:45:34.514Z,10.70
2023-03-24T00:48:32.508Z,10.70
2023-03-24T00:51:39.107Z,10.70
2023-03-24T00:54:39.928Z,10.50
2023-03-24T00:57:36.757Z,10.50
2023-03-24T01:00:33.678Z,10.50
2023-03-24T01:03:30.492Z,10.40
2023-03-24T01:06:27.309Z,10.40
2023-03-24T01:09:24.555Z,10.30
2023-03-24T01:12:21.845Z,10.20
2023-03-24T01:15:22.007Z,10.10
2023-03-24T01:18:20.034Z,10.10
2023-03-24T01:21:18.289Z,10.10
2023-03-24T01:24:15.116Z,10.10
2023-03-24T01:27:12.008Z,10.10
2023-03-24T01:30:12.121Z,10.00
2023-03-24T01:33:09.947Z,10.10
2023-03-24T01:36:07.820Z,10.00
2023-03-24T01:39:05.324Z,9.90
2023-03-24T01:42:02.246Z,9.90
2023-03-24T01:45:22.205Z,9.80
2023-03-24T01:48:45.625Z,9.90
2023-03-24T01:51:47.632Z,9.90
2023-03-24T01:54:53.321Z,9.80
2023-03-24T01:57:55.997Z,9.90
2023-03-24T02:00:53.557Z,10.00
2023-03-24T02:03:52.882Z,10.10
2023-03-24T02:06:50.740Z,10.20
2023-03-24T02:09:48.435Z,10.10
2023-03-24T02:12:46.404Z,10.10
2023-03-24T02:16:02.771Z,10.20
2023-03-24T02:19:39.672Z,10.10
2023-03-24T02:23:21.529Z,10.10
2023-03-24T02:26:52.258Z,10.00
2023-03-24T02:30:40.425Z,10.00
2023-03-24T02:33:54.267Z,10.10
2023-03-24T02:37:09.857Z,10.10
2023-03-24T02:40:15.309Z,10.00
2023-03-24T02:43:45.589Z,9.90
2023-03-24T02:46:54.856Z,9.90
2023-03-24T02:50:15.292Z,9.90
2023-03-24T02:53:50.646Z,9.90
2023-03-24T02:57:04.428Z,9.90
2023-03-24T03:00:28.355Z,9.90
2023-03-24T03:03:38.333Z,9.90
2023-03-24T03:06:40.341Z,9.80
2023-03-24T03:09:47.429Z,9.80
2023-03-24T03:12:50.498Z,9.80
2023-03-24T03:15:53.978Z,9.80
2023-03-24T03:18:58.124Z,9.60
2023-03-24T03:21:56.618Z,9.60
2023-03-24T03:24:57.430Z,9.60
2023-03-24T03:27:57.430Z,9.70
2023-03-24T03:30:59.378Z,9.80
2023-03-24T03:34:44.385Z,9.70
2023-03-24T03:38:08.566Z,9.70
2023-03-24T03:41:06.337Z,9.70
2023-03-24T03:44:03.231Z,9.70
2023-03-24T03:47:00.742Z,9.80
2023-03-24T03:49:57.637Z,9.80
2023-03-24T03:52:54.912Z,9.90
2023-03-24T03:55:52.274Z,10.00
2023-03-24T03:58:50.074Z,10.10
2023-03-24T04:01:48.818Z,10.00
2023-03-24T04:05:35.113Z,10.10
2023-03-24T04:09:01.973Z,10.20
2023-03-24T04:12:32.986Z,10.20
2023-03-24T04:15:34.631Z,10.30
2023-03-24T04:18:51.594Z,10.30
2023-03-24T04:22:09.553Z,10.30
2023-03-24T04:25:42.339Z,10.30
2023-03-24T04:29:08.936Z,10.20
2023-03-24T04:32:25.327Z,10.30
2023-03-24T04:35:34.166Z,10.10
2023-03-24T04:38:33.321Z,10.10
2023-03-24T04:41:31.890Z,10.20
2023-03-24T04:44:33.038Z,10.30
2023-03-24T04:47:38.485Z,10.30
2023-03-24T04:50:43.193Z,10.40
2023-03-24T04:53:40.151Z,10.40
2023-03-24T04:56:47.734Z,10.40
2023-03-24T04:59:44.921Z,10.40
2023-03-24T05:02:41.755Z,10.40
2023-03-24T05:05:38.590Z,10.50
2023-03-24T05:08:35.531Z,10.60
2023-03-24T05:11:32.325Z,10.50
2023-03-24T05:14:29.153Z,10.60
2023-03-24T05:17:25.966Z,10.60
2023-03-24T05:20:23.543Z,10.60
2023-03-24T05:23:20.469Z,10.70
2023-03-24T05:26:17.929Z,10.70
2023-03-24T05:29:14.986Z,10.70
2023-03-24T05:32:13.390Z,10.70
2023-03-24T05:35:10.319Z,10.70
2023-03-24T05:38:07.540Z,10.70
2023-03-24T05:41:05.852Z,10.70
2023-03-24T05:44:02.689Z,10.70
2023-03-24T05:46:59.513Z,10.70
2023-03-24T05:49:56.361Z,10.70
2023-03-24T05:52:53.173Z,10.80
2023-03-24T05:55:50.057Z,10.80
2023-03-24T05:58:47.032Z,10.80
2023-03-24T06:01:43.867Z,10.90
2023-03-24T06:04:46.542Z,10.90
2023-03-24T06:07:43.671Z,10.90
2023-03-24T06:10:41.110Z,10.80
2023-03-24T06:13:38.005Z,10.80
2023-03-24T06:16:40.724Z,10.80
2023-03-24T06:19:38.631Z,10.80
2023-03-24T06:22:36.292Z,10.80
2023-03-24T06:25:35.406Z,10.90
2023-03-24T06:28:34.483Z,10.90
2023-03-24T06:31:32.666Z,10.90
2023-03-24T06:34:29.883Z,10.90
2023-03-24T06:37:27.274Z,10.90
2023-03-24T06:40:24.097Z,10.80
2023-03-24T06:43:21.181Z,10.80
2023-03-24T06:46:18.035Z,10.80
2023-03-24T06:49:15.387Z,10.70
2023-03-24T06:52:12.256Z,10.70
2023-03-24T06:55:09.507Z,10.60
2023-03-24T06:58:06.414Z,10.60
2023-03-24T07:01:03.313Z,10.60
2023-03-24T07:04:00.624Z,10.60
2023-03-24T07:07:19.090Z,10.50
2023-03-24T07:10:15.766Z,10.50
2023-03-24T07:13:12.586Z,10.60
2023-03-24T07:16:09.417Z,10.70
2023-03-24T07:19:06.271Z,10.60
2023-03-24T07:22:03.147Z,10.60
2023-03-24T07:25:04.472Z,10.70
2023-03-24T07:28:01.684Z,10.70
2023-03-24T07:31:02.887Z,10.70
2023-03-24T07:34:01.835Z,10.70
2023-03-24T07:37:01.647Z,10.80
2023-03-24T07:39:59.060Z,10.80
2023-03-24T07:43:00.002Z,10.90
2023-03-24T07:45:57.022Z,10.90
2023-03-24T07:48:53.936Z,10.90
2023-03-24T07:51:51.185Z,10.90
2023-03-24T07:54:48.099Z,10.90
2023-03-24T07:57:49.617Z,10.90
2023-03-24T08:00:46.814Z,10.90
2023-03-24T08:03:44.216Z,10.90
2023-03-24T08:06:44.162Z,10.90
2023-03-24T08:09:41.476Z,10.90
2023-03-24T08:12:38.824Z,11.00
2023-03-24T08:15:35.671Z,10.90
2023-03-24T08:18:34.897Z,10.90
2023-03-24T08:21:31.976Z,10.90
2023-03-24T08:24:28.803Z,10.90
2023-03-24T08:27:25.713Z,11.00
2023-03-24T08:30:28.123Z,11.00
2023-03-24T08:33:25.050Z,11.00
2023-03-24T08:36:26.414Z,11.10
2023-03-24T08:39:24.288Z,11.10
2023-03-24T08:42:21.201Z,11.10
2023-03-24T08:45:21.508Z,11.10
2023-03-24T08:48:18.366Z,11.20
2023-03-24T08:51:17.480Z,11.20
2023-03-24T08:54:14.356Z,11.20
2023-03-24T08:57:11.326Z,11.30
2023-03-24T09:00:15.468Z,11.30
2023-03-24T09:03:22.035Z,11.30
2023-03-24T09:06:19.245Z,11.30
2023-03-24T09:09:16.393Z,11.30
2023-03-24T09:12:13.332Z,11.30
2023-03-24T09:15:13.438Z,11.20
2023-03-24T09:18:10.456Z,11.30
2023-03-24T09:21:08.302Z,11.30
2023-03-24T09:24:05.527Z,11.30
2023-03-24T09:27:02.623Z,11.40
2023-03-24T09:29:59.491Z,11.30
2023-03-24T09:32:58.937Z,11.30
2023-03-24T09:36:01.305Z,11.30
2023-03-24T09:38:58.436Z,11.30
2023-03-24T09:41:56.056Z,11.20
2023-03-24T09:44:57.785Z,11.30
2023-03-24T09:48:12.543Z,11.30
2023-03-24T09:51:42.449Z,11.30
2023-03-24T09:54:49.795Z,11.40
2023-03-24T09:57:49.465Z,11.40
2023-03-24T10:00:46.850Z,11.40
2023-03-24T10:03:46.233Z,11.40
2023-03-24T10:06:44.067Z,11.30
2023-03-24T10:09:41.319Z,11.30
2023-03-24T10:12:45.440Z,11.30
2023-03-24T10:15:55.133Z,11.20
2023-03-24T10:19:28.885Z,11.30
2023-03-24T10:22:44.361Z,11.20
2023-03-24T10:26:26.046Z,11.20
2023-03-24T10:29:32.427Z,11.30
2023-03-24T10:32:33.518Z,11.30
2023-03-24T10:35:36.655Z,11.30
2023-03-24T10:38:33.526Z,11.40
2023-03-24T10:41:33.381Z,11.40
2023-03-24T10:44:30.649Z,11.40
2023-03-24T10:47:32.861Z,11.50
2023-03-24T10:50:35.936Z,11.50
2023-03-24T10:53:34.069Z,11.50
2023-03-24T10:57:01.970Z,11.50
2023-03-24T11:00:18.924Z,11.50
2023-03-24T11:03:23.359Z,11.40
2023-03-24T11:06:22.069Z,11.40
2023-03-24T11:09:21.878Z,11.50
2023-03-24T11:12:31.438Z,11.60
2023-03-24T11:15:37.384Z,11.60
2023-03-24T11:18:34.455Z,11.60
2023-03-24T11:21:37.835Z,11.60
2023-03-24T11:24:38.454Z,11.60
2023-03-24T11:27:43.106Z,11.60
2023-03-24T11:30:52.399Z,11.50
2023-03-24T11:33:56.696Z,11.50
2023-03-24T11:36:59.281Z,11.20
2023-03-24T11:40:12.379Z,10.80
2023-03-24T11:43:21.383Z,10.50
2023-03-24T11:46:20.849Z,10.40
2023-03-24T11:49:22.695Z,10.20
2023-03-24T11:52:36.106Z,10.10
2023-03-24T11:55:53.664Z,10.00
2023-03-24T11:59:22.406Z,9.90
2023-03-24T12:02:25.813Z,9.80
2023-03-24T12:05:39.616Z,9.80
2023-03-24T12:09:08.335Z,9.80
2023-03-24T12:12:59.318Z,9.70
2023-03-24T12:16:11.220Z,9.80
2023-03-24T12:19:35.534Z,9.70
2023-03-24T12:23:03.987Z,9.60
2023-03-24T12:26:39.138Z,9.80
2023-03-24T12:30:01.797Z,9.80
2023-03-24T12:33:38.335Z,9.80
2023-03-24T12:37:01.817Z,9.90
2023-03-24T12:40:38.420Z,10.00
2023-03-24T12:44:01.964Z,10.00
2023-03-24T12:47:26.593Z,9.90
2023-03-24T12:51:16.537Z,10.00
2023-03-24T12:54:27.966Z,10.10
2023-03-24T12:57:28.304Z,10.00
2023-03-24T13:00:33.854Z,9.90
2023-03-24T13:03:50.475Z,9.90
2023-03-24T13:06:59.852Z,10.00
2023-03-24T13:10:27.845Z,10.00
2023-03-24T13:13:32.787Z,9.90
2023-03-24T13:16:34.452Z,9.80
2023-03-24T13:19:33.191Z,9.80
2023-03-24T13:22:31.878Z,9.80
2023-03-24T13:25:52.531Z,9.70
2023-03-24T13:29:03.820Z,9.70
2023-03-24T13:32:23.810Z,10.00
2023-03-24T13:35:45.446Z,10.00
2023-03-24T13:38:49.622Z,10.10
2023-03-24T13:41:51.956Z,10.20
2023-03-24T13:44:49.297Z,10.20
2023-03-24T13:48:10.415Z,10.20
2023-03-24T13:51:19.543Z,10.20
2023-03-24T13:54:23.773Z,10.20
2023-03-24T13:57:23.569Z,10.30
2023-03-24T14:00:25.070Z,10.50
2023-03-24T14:03:38.670Z,10.50
2023-03-24T14:06:56.168Z,10.60
2023-03-24T14:10:20.822Z,10.60
2023-03-24T14:13:17.614Z,10.70
2023-03-24T14:16:30.807Z,10.90
2023-03-24T14:19:50.234Z,10.80
2023-03-24T14:22:51.714Z,10.70
2023-03-24T14:25:55.959Z,10.60
2023-03-24T14:28:55.232Z,10.60
2023-03-24T14:32:17.128Z,10.80
2023-03-24T14:35:24.048Z,10.80
2023-03-24T14:38:27.005Z,11.10
2023-03-24T14:41:31.273Z,11.30
2023-03-24T14:44:52.400Z,11.30
2023-03-24T14:47:59.564Z,11.30
2023-03-24T14:51:08.589Z,11.50
2023-03-24T14:54:36.914Z,11.70
2023-03-24T14:57:42.595Z,11.70
2023-03-24T15:00:57.948Z,12.40
2023-03-24T15:04:08.309Z,12.40
2023-03-24T15:07:06.340Z,12.20
2023-03-24T15:10:03.225Z,12.20
2023-03-24T15:13:00.156Z,12.00
2023-03-24T15:15:57.830Z,12.10
2023-03-24T15:19:02.033Z,12.20
2023-03-24T15:22:13.487Z,12.10
2023-03-24T15:25:12.269Z,12.10
2023-03-24T15:28:24.512Z,12.00
2023-03-24T15:31:25.067Z,12.20
2023-03-24T15:34:40.359Z,12.40
2023-03-24T15:37:43.156Z,12.30
2023-03-24T15:40:41.189Z,12.20
2023-03-24T15:43:53.551Z,12.20
2023-03-24T15:46:50.770Z,12.20
2023-03-24T15:49:58.450Z,12.10
2023-03-24T15:53:14.983Z,12.20
2023-03-24T15:56:19.378Z,11.90
2023-03-24T15:59:16.268Z,11.90
2023-03-24T16:02:39.271Z,11.70
2023-03-24T16:05:36.344Z,12.00
2023-03-24T16:08:38.866Z,12.00
2023-03-24T16:11:35.922Z,12.10
2023-03-24T16:14:33.328Z,12.00
2023-03-24T16:17:30.600Z,11.90
2023-03-24T16:20:27.759Z,11.80
2023-03-24T16:23:26.308Z,11.80
2023-03-24T16:26:30.278Z,11.60
2023-03-24T16:29:27.200Z,11.50
2023-03-24T16:32:24.265Z,11.20
2023-03-24T16:35:21.182Z,11.30
2023-03-24T16:38:18.092Z,11.10
2023-03-24T16:41:15.802Z,11.20
2023-03-24T16:44:13.417Z,11.00
2023-03-24T16:47:11.524Z,10.80
2023-03-24T16:50:30.446Z,10.60
2023-03-24T16:53:27.352Z,10.80
2023-03-24T16:56:34.226Z,10.80
2023-03-24T16:59:31.066Z,10.70
2023-03-24T17:02:27.988Z,10.60
2023-03-24T17:05:29.498Z,10.40
2023-03-24T17:08:26.315Z,10.40
2023-03-24T17:11:30.448Z,10.30
2023-03-24T17:14:27.461Z,10.30
2023-03-24T17:17:24.415Z,10.10
2023-03-24T17:20:23.550Z,9.90
2023-03-24T17:23:21.943Z,9.80
2023-03-24T17:26:18.809Z,9.80
2023-03-24T17:29:15.731Z,9.70
2023-03-24T17:32:12.696Z,9.60
2023-03-24T17:35:16.859Z,10.00
2023-03-24T17:38:16.528Z,9.80
2023-03-24T17:41:13.574Z,9.50
2023-03-24T17:44:10.893Z,9.40
2023-03-24T17:47:08.494Z,9.30
2023-03-24T17:50:09.863Z,9.30
2023-03-24T17:53:07.271Z,9.20
2023-03-24T17:56:05.537Z,9.10
2023-03-24T17:59:03.491Z,9.20
2023-03-24T18:02:00.317Z,9.00
2023-03-24T18:04:58.613Z,8.70
2023-03-24T18:07:55.460Z,8.70
2023-03-24T18:10:52.437Z,8.80
2023-03-24T18:13:49.675Z,9.00
2023-03-24T18:16:46.576Z,9.00
2023-03-24T18:19:43.528Z,9.00
2023-03-24T18:22:41.008Z,9.10
2023-03-24T18:25:38.050Z,9.00
2023-03-24T18:28:37.497Z,8.80
2023-03-24T18:31:34.818Z,9.10
2023-03-24T18:34:32.173Z,9.20
2023-03-24T18:37:29.447Z,9.00
2023-03-24T18:40:26.464Z,8.80
2023-03-24T18:43:24.033Z,8.70
2023-03-24T18:46:22.084Z,8.70
2023-03-24T18:49:18.948Z,8.40
2023-03-24T18:52:18.004Z,8.20
2023-03-24T18:55:15.799Z,8.30
2023-03-24T18:58:15.377Z,8.10
2023-03-24T19:01:18.621Z,8.30
2023-03-24T19:04:16.871Z,8.20
2023-03-24T19:07:14.646Z,8.20
2023-03-24T19:10:12.800Z,8.40
2023-03-24T19:13:12.877Z,8.70
2023-03-24T19:16:11.652Z,8.60
2023-03-24T19:19:09.817Z,8.70
2023-03-24T19:22:08.166Z,8.70
2023-03-24T19:25:05.807Z,8.70
2023-03-24T19:28:02.667Z,8.70
2023-03-24T19:31:06.938Z,8.70
2023-03-24T19:34:04.004Z,8.80
2023-03-24T19:37:00.837Z,8.80
2023-03-24T19:40:01.512Z,8.90
2023-03-24T19:42:58.584Z,8.80
2023-03-24T19:45:56.184Z,8.80
2023-03-24T19:48:53.120Z,9.00
2023-03-24T19:51:51.117Z,8.90
2023-03-24T19:54:47.951Z,8.90
2023-03-24T19:57:44.910Z,8.90
2023-03-24T20:00:42.035Z,9.00
2023-03-24T20:03:40.036Z,8.80
2023-03-24T20:06:37.058Z,8.90
2023-03-24T20:09:34.026Z,9.00
2023-03-24T20:12:32.185Z,9.00
2023-03-24T20:15:29.101Z,9.00
2023-03-24T20:18:26.090Z,9.00
2023-03-24T20:21:23.566Z,9.00
2023-03-24T20:24:23.583Z,9.00
2023-03-24T20:27:20.654Z,9.10
2023-03-24T20:30:18.751Z,9.00
2023-03-24T20:33:15.562Z,9.00
2023-03-24T20:36:12.419Z,8.90
2023-03-24T20:39:09.689Z,9.00
2023-03-24T20:42:06.495Z,9.00
2023-03-24T20:45:04.641Z,9.00
2023-03-24T20:48:02.286Z,9.00
2023-03-24T20:50:59.940Z,9.00
2023-03-24T20:53:56.779Z,9.00
2023-03-24T20:56:53.622Z,8.80
2023-03-24T20:59:51.040Z,8.80
2023-03-24T21:02:47.950Z,8.80
2023-03-24T21:05:44.853Z,8.80
2023-03-24T21:08:44.595Z,8.80
2023-03-24T21:11:41.947Z,8.80
2023-03-24T21:14:38.974Z,8.70
2023-03-24T21:17:35.821Z,8.60
2023-03-24T21:20:32.674Z,8.70
2023-03-24T21:23:32.739Z,8.70
2023-03-24T21:26:30.283Z,8.70
2023-03-24T21:29:27.172Z,8.60
2023-03-24T21:32:24.041Z,8.50
2023-03-24T21:35:21.583Z,8.60
2023-03-24T21:38:18.776Z,8.60
2023-03-24T21:41:17.269Z,8.60
2023-03-24T21:44:14.798Z,8.70
2023-03-24T21:47:12.439Z,8.70
2023-03-24T21:50:11.499Z,8.80
2023-03-24T21:53:14.831Z,8.70
2023-03-24T21:56:11.726Z,8.60
2023-03-24T21:59:09.852Z,8.60
2023-03-24T22:02:14.445Z,8.60
2023-03-24T22:05:13.963Z,8.60
2023-03-24T22:08:12.126Z,8.50
2023-03-24T22:11:09.621Z,8.50
2023-03-24T22:14:06.751Z,8.40
2023-03-24T22:17:05.129Z,8.30
2023-03-24T22:20:05.089Z,8.20
2023-03-24T22:23:03.507Z,8.20
2023-03-24T22:26:03.921Z,8.20
2023-03-24T22:29:02.101Z,8.20
2023-03-24T22:31:59.210Z,8.20
2023-03-24T22:34:56.063Z,8.10
2023-03-24T22:37:52.856Z,8.00
2023-03-24T22:40:50.104Z,7.90
2023-03-24T22:43:46.926Z,7.90
2023-03-24T22:46:43.766Z,7.90
2023-03-24T22:49:41.399Z,7.90
2023-03-24T22:52:38.205Z,8.00
2023-03-24T22:55:36.136Z,7.80
2023-03-24T22:58:32.998Z,7.70
2023-03-24T23:01:29.846Z,7.80
2023-03-24T23:04:26.702Z,7.80
2023-03-24T23:07:23.526Z,7.80
2023-03-24T23:10:20.797Z,7.80
2023-03-24T23:13:17.730Z,7.80
2023-03-24T23:16:14.612Z,7.80
2023-03-24T23:19:12.218Z,7.70
2023-03-24T23:22:09.022Z,7.60
2023-03-24T23:28:03.802Z,7.70
2023-03-24T23:31:00.999Z,7.70
2023-03-24T23:34:00.200Z,7.90
2023-03-24T23:36:57.806Z,8.20
2023-03-24T23:39:54.826Z,8.20
2023-03-24T23:42:51.745Z,8.30
2023-03-24T23:45:48.744Z,8.30
2023-03-24T23:48:45.946Z,8.40
2023-03-24T23:51:43.263Z,8.40
2023-03-24T23:54:40.290Z,8.40
2023-03-24T23:57:42.168Z,8.40
